createdAt,value
2019-05-20T00:02:25.930Z,59851.39
2019-05-20T00:07:15.317Z,59812.16
2019-05-20T00:12:11.243Z,59751.16
2019-05-20T00:17:07.306Z,59762.58
2019-05-20T00:22:03.335Z,59740.64
2019-05-20T00:26:59.259Z,59791.85
2019-05-20T00:31:55.195Z,59718.97
2019-05-20T00:36:51.116Z,59755.41
2019-05-20T00:41:47.848Z,59718.04
2019-05-20T00:46:43.787Z,59809.22
2019-05-20T00:51:40.731Z,59744.24
2019-05-20T00:56:36.754Z,59681.21
2019-05-20T01:01:32.898Z,59671.18
2019-05-20T01:06:28.828Z,59688.25
2019-05-20T01:11:24.763Z,59660.27
2019-05-20T01:16:20.725Z,59674.59
2019-05-20T01:21:16.748Z,59695.83
2019-05-20T01:26:12.830Z,59725.91
2019-05-20T01:31:09.047Z,59739.50
2019-05-20T01:36:04.977Z,59773.91
2019-05-20T01:41:01.415Z,59708.34
2019-05-20T01:45:57.358Z,59625.90
2019-05-20T01:50:53.290Z,59660.53
2019-05-20T01:55:49.219Z,59686.45
2019-05-20T02:00:45.149Z,59643.62
2019-05-20T02:05:41.073Z,59614.86
2019-05-20T02:10:37.011Z,59591.55
2019-05-20T02:15:40.913Z,59667.31
2019-05-20T02:20:36.880Z,59529.15
2019-05-20T02:25:32.774Z,59631.54
2019-05-20T02:30:28.799Z,59616.69
2019-05-20T02:35:24.729Z,59576.74
2019-05-20T02:40:20.764Z,59556.18
2019-05-20T02:45:16.921Z,59664.19
2019-05-20T02:50:12.954Z,59669.75
2019-05-20T02:55:08.997Z,59620.41
2019-05-20T03:00:08.514Z,59596.84
2019-05-20T03:05:07.674Z,59668.82
2019-05-20T03:10:05.519Z,59553.36
2019-05-20T03:15:02.357Z,59618.18
2019-05-20T03:19:58.284Z,59539.04
2019-05-20T03:24:54.218Z,59541.74
2019-05-20T03:29:50.251Z,59595.11
2019-05-20T03:34:54.012Z,59566.16
2019-05-20T03:39:44.029Z,59576.93
2019-05-20T03:44:39.986Z,59572.62
2019-05-20T03:49:35.911Z,59560.93
2019-05-20T03:54:31.848Z,59616.28
2019-05-20T03:59:27.791Z,59682.34
2019-05-20T04:04:25.157Z,59671.30
2019-05-20T04:09:22.113Z,59738.96
2019-05-20T04:14:18.115Z,59724.81
2019-05-20T04:19:14.036Z,59771.75
2019-05-20T04:24:10.185Z,59764.20
2019-05-20T04:29:06.133Z,59851.23
2019-05-20T04:34:02.165Z,59786.43
2019-05-20T04:39:03.243Z,59837.02
2019-05-20T04:43:59.214Z,59787.63
2019-05-20T04:48:55.159Z,59802.93
2019-05-20T04:53:51.080Z,59832.47
2019-05-20T04:58:47.007Z,59929.34
2019-05-20T05:03:42.936Z,59909.14
2019-05-20T05:08:46.407Z,59894.86
2019-05-20T05:13:42.430Z,59991.59
2019-05-20T05:18:38.362Z,60024.26
2019-05-20T05:23:34.398Z,60065.40
2019-05-20T05:28:30.332Z,60070.14
2019-05-20T05:33:26.267Z,60130.36
2019-05-20T05:38:24.678Z,60162.05
2019-05-20T05:43:26.730Z,60147.61
2019-05-20T05:48:23.364Z,60202.77
2019-05-20T05:53:19.293Z,60228.02
2019-05-20T05:58:15.245Z,60240.68
2019-05-20T06:03:11.229Z,60282.52
2019-05-20T06:08:07.162Z,60224.58
2019-05-20T06:13:03.337Z,60269.65
2019-05-20T06:17:59.315Z,60280.03
2019-05-20T06:22:55.619Z,60261.76
2019-05-20T06:27:51.545Z,60219.93
2019-05-20T06:32:47.475Z,60171.33
2019-05-20T06:37:48.499Z,60237.80
2019-05-20T06:42:44.527Z,60146.71
2019-05-20T06:47:41.264Z,60207.80
2019-05-20T06:52:37.208Z,60206.46
2019-05-20T06:57:33.125Z,60209.57
2019-05-20T07:02:29.063Z,60177.98
2019-05-20T07:07:24.988Z,60305.19
2019-05-20T07:12:20.932Z,60317.36
2019-05-20T07:17:16.857Z,60259.27
2019-05-20T07:22:12.778Z,60190.99
2019-05-20T07:27:08.705Z,60201.72
2019-05-20T07:32:04.641Z,60261.66
2019-05-20T07:37:03.836Z,60193.85
2019-05-20T07:41:58.490Z,60152.17
2019-05-20T07:46:54.600Z,60135.99
2019-05-20T07:51:50.810Z,60167.89
2019-05-20T07:56:48.542Z,60191.72
2019-05-20T08:01:44.466Z,60113.26
2019-05-20T08:06:40.393Z,60137.18
2019-05-20T08:11:36.327Z,60148.37
2019-05-20T08:16:32.655Z,60170.86
2019-05-20T08:21:28.580Z,60210.18
2019-05-20T08:26:24.622Z,60171.83
2019-05-20T08:31:20.547Z,60111.80
2019-05-20T08:36:16.484Z,60144.66
2019-05-20T08:41:12.421Z,60152.77
2019-05-20T08:46:08.391Z,60152.89
2019-05-20T08:51:04.314Z,60210.88
2019-05-20T08:56:00.283Z,60182.77
2019-05-20T09:00:56.379Z,60205.76
2019-05-20T09:05:52.305Z,60227.35
2019-05-20T09:10:48.240Z,60206.49
2019-05-20T09:15:45.427Z,60218.99
2019-05-20T09:20:41.941Z,60233.29
2019-05-20T09:25:37.928Z,60286.70
2019-05-20T09:30:33.866Z,60397.55
2019-05-20T09:35:29.996Z,60303.28
2019-05-20T09:40:57.014Z,60366.41
2019-05-20T09:46:06.210Z,60301.38
2019-05-20T09:50:51.802Z,60279.91
2019-05-20T09:55:47.727Z,60291.23
2019-05-20T10:00:44.958Z,60250.32
2019-05-20T10:05:40.919Z,60368.55
2019-05-20T10:10:36.830Z,60322.50
2019-05-20T10:15:32.952Z,60363.90
2019-05-20T10:20:28.875Z,60363.04
2019-05-20T10:25:24.920Z,60474.00
2019-05-20T10:30:20.952Z,60507.47
2019-05-20T10:35:16.892Z,60446.29
2019-05-20T10:40:19.499Z,60492.17
2019-05-20T10:45:18.754Z,60531.76
2019-05-20T10:50:15.009Z,60583.06
2019-05-20T10:55:11.626Z,60648.30
2019-05-20T11:00:08.060Z,60615.87
2019-05-20T11:05:05.200Z,60633.34
2019-05-20T11:10:01.345Z,60619.20
2019-05-20T11:14:57.265Z,60612.97
2019-05-20T11:19:53.200Z,60702.93
2019-05-20T11:24:49.196Z,60791.52
2019-05-20T11:29:45.126Z,60728.46
2019-05-20T11:34:41.095Z,60731.68
2019-05-20T11:39:37.093Z,60869.10
2019-05-20T11:44:33.044Z,60771.37
2019-05-20T11:49:29.510Z,60882.57
2019-05-20T11:54:25.556Z,60882.57
2019-05-20T11:59:21.490Z,60860.73
2019-05-20T12:04:17.418Z,60932.27
2019-05-20T12:09:14.629Z,60905.01
2019-05-20T12:14:10.626Z,60857.97
2019-05-20T12:19:06.555Z,60908.50
2019-05-20T12:24:02.595Z,60958.81
2019-05-20T12:28:58.523Z,60960.62
2019-05-20T12:33:54.455Z,60909.82
2019-05-20T12:38:53.337Z,60945.25
2019-05-20T12:44:09.962Z,60908.27
2019-05-20T12:48:47.654Z,60971.78
2019-05-20T12:53:43.614Z,60970.03
2019-05-20T12:58:40.149Z,61002.35
2019-05-20T13:03:36.087Z,60964.04
2019-05-20T13:08:47.018Z,60974.71
2019-05-20T13:13:43.148Z,61014.36
2019-05-20T13:18:53.473Z,60989.80
2019-05-20T13:23:37.043Z,60997.73
2019-05-20T13:28:33.021Z,61018.20
2019-05-20T13:33:29.308Z,61061.11
2019-05-20T13:38:26.189Z,61021.82
2019-05-20T13:43:22.217Z,61000.28
2019-05-20T13:48:18.199Z,60937.25
2019-05-20T13:53:14.160Z,61002.46
2019-05-20T13:58:10.790Z,61061.23
2019-05-20T14:03:06.985Z,61149.15
2019-05-20T14:08:03.130Z,61026.02
2019-05-20T14:12:59.129Z,61183.55
2019-05-20T14:17:55.049Z,61201.09
2019-05-20T14:22:51.049Z,61127.60
2019-05-20T14:27:47.056Z,61146.86
2019-05-20T14:32:43.127Z,61107.66
2019-05-20T14:37:39.043Z,61216.00
2019-05-20T14:42:35.588Z,61204.48
2019-05-20T14:47:31.531Z,61122.87
2019-05-20T14:52:32.760Z,61086.48
2019-05-20T14:57:33.966Z,61134.13
2019-05-20T15:02:37.595Z,61048.89
2019-05-20T15:07:40.553Z,61035.90
2019-05-20T15:17:56.849Z,61048.50
2019-05-20T15:22:53.498Z,61098.16
2019-05-20T15:27:50.518Z,61126.47
2019-05-20T15:32:46.547Z,61145.87
2019-05-20T15:37:44.567Z,61033.84
2019-05-20T15:42:41.482Z,61104.05
2019-05-20T15:47:37.546Z,61101.43
2019-05-20T15:52:34.134Z,61091.10
2019-05-20T15:57:30.063Z,61091.10
2019-05-20T16:02:26.001Z,61151.70
2019-05-20T16:07:22.034Z,61207.35
2019-05-20T16:12:17.969Z,61175.18
2019-05-20T16:17:14.070Z,61134.36
2019-05-20T16:22:10.005Z,61188.65
2019-05-20T16:27:06.186Z,61120.37
2019-05-20T16:32:02.378Z,61047.05
2019-05-20T16:36:58.333Z,61035.48
2019-05-20T16:41:55.000Z,60996.16
2019-05-20T16:46:51.051Z,60953.79
2019-05-20T16:51:48.939Z,60959.54
2019-05-20T16:56:47.775Z,60944.90
2019-05-20T17:01:46.539Z,60944.05
2019-05-20T17:06:42.503Z,60980.66
2019-05-20T17:11:38.516Z,60965.06
2019-05-20T17:16:34.438Z,60994.68
2019-05-20T17:21:30.957Z,60968.39
2019-05-20T17:26:26.927Z,60957.33
2019-05-20T17:31:22.964Z,60936.79
2019-05-20T17:36:18.899Z,60926.58
2019-05-20T17:41:14.828Z,60893.95
2019-05-20T17:46:10.951Z,60899.35
2019-05-20T17:51:06.883Z,60796.66
2019-05-20T17:56:03.056Z,60721.49
2019-05-20T18:01:13.801Z,60668.07
2019-05-20T18:05:57.604Z,60689.70
2019-05-20T18:10:53.636Z,60603.17
2019-05-20T18:15:49.558Z,60577.68
2019-05-20T18:20:45.498Z,60550.94
2019-05-20T18:25:42.549Z,60543.45
2019-05-20T18:30:38.479Z,60612.70
2019-05-20T18:35:34.416Z,60721.08
2019-05-20T18:40:30.450Z,60733.70
2019-05-20T18:45:26.420Z,60746.76
2019-05-20T18:50:23.494Z,60754.55
2019-05-20T18:55:19.416Z,60830.52
2019-05-20T19:00:17.384Z,60834.47
2019-05-20T19:05:13.612Z,60812.64
2019-05-20T19:10:09.860Z,60811.57
2019-05-20T19:15:06.123Z,60766.52
2019-05-20T19:20:03.443Z,60799.10
2019-05-20T19:24:59.414Z,60710.69
2019-05-20T19:29:55.505Z,60738.36
2019-05-20T19:34:51.435Z,60773.33
2019-05-20T19:39:47.367Z,60710.57
2019-05-20T19:44:43.327Z,60736.06
2019-05-20T19:49:42.322Z,60723.73
2019-05-20T19:54:37.193Z,60715.71
2019-05-20T19:59:33.119Z,60748.64
2019-05-20T20:04:29.050Z,60704.10
2019-05-20T20:09:25.592Z,60737.14
2019-05-20T20:14:21.488Z,60719.31
2019-05-20T20:19:17.416Z,60734.86
2019-05-20T20:24:13.344Z,60714.39
2019-05-20T20:29:11.135Z,60764.20
2019-05-20T20:34:07.104Z,60726.84
2019-05-20T20:39:06.988Z,60694.87
2019-05-20T20:44:03.116Z,60711.03
2019-05-20T20:48:59.141Z,60701.57
2019-05-20T20:53:55.066Z,60698.70
2019-05-20T20:58:51.051Z,60654.04
2019-05-20T21:03:46.957Z,60684.17
2019-05-20T21:08:48.798Z,60679.28
2019-05-20T21:13:44.824Z,60702.47
2019-05-20T21:18:41.180Z,60678.90
2019-05-20T21:23:38.060Z,60644.79
2019-05-20T21:28:35.951Z,60653.77
2019-05-20T21:33:31.915Z,60643.82
2019-05-20T21:38:28.967Z,60638.08
2019-05-20T21:43:25.035Z,60626.59
2019-05-20T21:48:20.984Z,60629.56
2019-05-20T21:53:16.895Z,60594.16
2019-05-20T21:58:12.823Z,60595.82
2019-05-20T22:03:23.253Z,60555.29
2019-05-20T22:08:06.690Z,60557.19
2019-05-20T22:13:02.715Z,60538.29
2019-05-20T22:17:58.642Z,60502.80
2019-05-20T22:28:14.714Z,60524.40
2019-05-20T22:33:10.633Z,60558.56
2019-05-20T22:38:06.591Z,60480.20
2019-05-20T22:43:02.609Z,60490.82
2019-05-20T22:47:58.560Z,60444.37
2019-05-20T22:52:54.487Z,60468.83
2019-05-20T22:57:50.410Z,60437.78
2019-05-20T23:02:46.333Z,60466.54
2019-05-20T23:07:42.256Z,60415.46
2019-05-20T23:12:38.275Z,60397.90
2019-05-20T23:17:34.201Z,60433.57
2019-05-20T23:22:30.122Z,60382.73
2019-05-20T23:27:26.043Z,60395.62
2019-05-20T23:32:21.962Z,60402.30
2019-05-20T23:37:17.884Z,60377.83
2019-05-20T23:42:14.658Z,60354.45
2019-05-20T23:47:10.657Z,60332.85
2019-05-20T23:52:06.640Z,60313.76
2019-05-20T23:57:02.647Z,60345.35
